Time;durP1;ratioP1;P1;durP2;ratioP2;P2;SDS_P1;SDS_P2;PMS_P1;PMS_P2;Temp;Humidity;BMP_temperature;BMP_pressure;BME280_temperature;BME280_humidity;BME280_pressure;Samples;Min_cycle;Max_cycle;Signal;HPM_P1;HPM_P2
2022/06/08 00:02:21;;;;;;;;;;;;;;;;;;5013056;28;1318;-73
2022/06/08 00:04:48;;;;;;;;;;;;;;;;;;5030598;28;937;-75
2022/06/08 00:07:14;;;;;;;;;;;;;;;;;;5030678;28;1060;-75
2022/06/08 00:09:41;;;;;;;;;;;;;;;;;;5030410;28;1316;-74
2022/06/08 00:12:08;;;;;;;;;;;;;;;;;;5030748;28;917;-75
2022/06/08 00:14:34;;;;;;;;;;;;;;;;;;5030728;28;807;-75
2022/06/08 00:17:01;;;;;;;;;;;;;;;;;;5030290;28;1910;-75
2022/06/08 00:19:27;;;;;;;;;;;;;;;;;;5030624;28;1318;-75
2022/06/08 00:21:55;;;;;;;;;;;;;;;;;;5030547;28;1116;-75
2022/06/08 00:24:21;;;;;;;;;;;;;;;;;;5030651;28;1426;-74
2022/06/08 00:26:47;;;;;;;;;;;;;;;;;;5030187;28;1096;-75
2022/06/08 00:29:13;;;;;;;;;;;;;;;;;;5013011;28;1216;-74
2022/06/08 00:31:40;;;;;;;;;;;;;;;;;;5012639;28;1452;-75
2022/06/08 00:34:07;;;;;;;;;;;;;;;;;;5030360;28;922;-75
2022/06/08 00:36:34;;;;;;;;;;;;;;;;;;5012457;28;1975;-75
2022/06/08 00:39:01;;;;;;;;;;;;;;;;;;5030493;28;771;-75
2022/06/08 00:41:33;;;;;;;;;;;;;;;;;;5030287;28;1353;-74
2022/06/08 00:44:00;;;;;;;;;;;;;;;;;;5030115;28;937;-75
2022/06/08 00:46:26;;;;;;;;;;;;;;;;;;5012167;28;1215;-75
2022/06/08 00:48:54;;;;;;;;;;;;;;;;;;5030089;28;845;-74
2022/06/08 00:51:20;;;;;;;;;;;;;;;;;;5030069;28;1303;-75
2022/06/08 00:53:56;;;;;;;;;;;;;;;;;;5012384;28;1392;-73
2022/06/08 00:56:24;;;;;;;;;;;;;;;;;;5012100;28;1262;-74
2022/06/08 00:58:51;;;;;;;;;;;;;;;;;;5012386;28;1910;-74
2022/06/08 01:01:17;;;;;;;;;;;;;;;;;;5012461;28;1328;-75
2022/06/08 01:03:44;;;;;;;;;;;;;;;;;;5012386;28;1226;-75
2022/06/08 01:06:14;;;;;;;;;;;;;;;;;;5012967;28;1374;-74
2022/06/08 01:08:41;;;;;;;;;;;;;;;;;;5033961;28;906;-74
2022/06/08 01:11:12;;;;;;;;;;;;;;;;;;5016134;28;1559;-74
2022/06/08 01:13:40;;;;;;;;;;;;;;;;;;5033734;28;814;-76
2022/06/08 01:16:11;;;;;;;;;;;;;;;;;;5015511;28;1379;-74
2022/06/08 01:18:39;;;;;;;;;;;;;;;;;;5015782;28;1910;-74
2022/06/08 01:21:20;;;;;;;;;;;;;;;;;;5033343;28;1410;-74
2022/06/08 01:23:50;;;;;;;;;;;;;;;;;;5007350;28;1383;-74
2022/06/08 01:26:17;;;;;;;;;;;;;;;;;;5015340;28;1301;-74
2022/06/08 01:28:47;;;;;;;;;;;;;;;;;;5015709;28;1466;-74
2022/06/08 01:31:15;;;;;;;;;;;;;;;;;;5033084;28;1443;-74
2022/06/08 01:33:44;;;;;;;;;;;;;;;;;;5033021;28;1563;-75
2022/06/08 01:36:21;;;;;;;;;;;;;;;;;;5033195;28;887;-75
2022/06/08 01:38:48;;;;;;;;;;;;;;;;;;5015362;28;1918;-75
2022/06/08 01:41:23;;;;;;;;;;;;;;;;;;5015517;28;1325;-75
2022/06/08 01:43:51;;;;;;;;;;;;;;;;;;5015205;28;831;-75
2022/06/08 01:46:18;;;;;;;;;;;;;;;;;;5015292;28;1369;-75
2022/06/08 01:49:03;;;;;;;;;;;;;;;;;;5015279;28;1156;-75
2022/06/08 01:51:40;;;;;;;;;;;;;;;;;;5015270;28;1412;-75
2022/06/08 01:54:08;;;;;;;;;;;;;;;;;;5015228;28;1372;-75
2022/06/08 01:56:37;;;;;;;;;;;;;;;;;;5014774;28;1116;-74
2022/06/08 01:59:07;;;;;;;;;;;;;;;;;;5015265;28;1914;-75
2022/06/08 02:01:37;;;;;;;;;;;;;;;;;;5014928;28;1549;-74
2022/06/08 02:04:04;;;;;;;;;;;;;;;;;;5015107;28;1200;-75
2022/06/08 02:06:32;;;;;;;;;;;;;;;;;;5014958;28;1428;-74
2022/06/08 02:09:00;;;;;;;;;;;;;;;;;;5014962;28;1463;-74
2022/06/08 02:11:28;;;;;;;;;;;;;;;;;;5014957;28;1487;-75
2022/06/08 02:13:57;;;;;;;;;;;;;;;;;;5014668;28;1255;-74
2022/06/08 02:16:27;;;;;;;;;;;;;;;;;;5014735;28;1208;-75
2022/06/08 02:18:54;;;;;;;;;;;;;;;;;;5013978;28;1958;-74
2022/06/08 02:21:22;;;;;;;;;;;;;;;;;;5014543;28;1324;-75
2022/06/08 02:23:50;;;;;;;;;;;;;;;;;;5005400;28;1730;-74
2022/06/08 02:26:17;;;;;;;;;;;;;;;;;;5014252;28;1323;-74
2022/06/08 02:28:45;;;;;;;;;;;;;;;;;;5032292;28;878;-74
2022/06/08 02:31:14;;;;;;;;;;;;;;;;;;5014371;28;1349;-73
2022/06/08 02:36:27;;;;;;;;;;;;;;;;;;5014322;28;1246;-74
2022/06/08 02:38:54;;;;;;;;;;;;;;;;;;5032109;28;1915;-74
2022/06/08 02:41:21;;;;;;;;;;;;;;;;;;5014329;28;1330;-73
2022/06/08 02:43:49;;;;;;;;;;;;;;;;;;5014210;28;1459;-73
2022/06/08 02:46:25;;;;;;;;;;;;;;;;;;5031513;28;825;-74
2022/06/08 02:48:53;;;;;;;;;;;;;;;;;;5014413;28;1242;-74
2022/06/08 02:51:24;;;;;;;;;;;;;;;;;;5014293;28;1352;-74
2022/06/08 02:53:53;;;;;;;;;;;;;;;;;;5031934;28;1076;-74
2022/06/08 02:56:23;;;;;;;;;;;;;;;;;;5013820;28;1471;-74
2022/06/08 02:58:50;;;;;;;;;;;;;;;;;;5032073;28;1918;-73
2022/06/08 03:01:18;;;;;;;;;;;;;;;;;;5014057;28;1466;-74
2022/06/08 03:03:48;;;;;;;;;;;;;;;;;;5016781;28;1348;-74
2022/06/08 03:06:16;;;;;;;;;;;;;;;;;;5013708;28;1298;-73
2022/06/08 03:08:47;;;;;;;;;;;;;;;;;;5013783;28;1432;-73
2022/06/08 03:11:14;;;;;;;;;;;;;;;;;;5013686;28;1345;-73
2022/06/08 03:13:41;;;;;;;;;;;;;;;;;;5013582;28;1238;-72
2022/06/08 03:16:08;;;;;;;;;;;;;;;;;;5013403;28;1188;-74
2022/06/08 03:18:35;;;;;;;;;;;;;;;;;;5031190;28;1910;-73
2022/06/08 03:21:04;;;;;;;;;;;;;;;;;;5031459;28;1407;-73
2022/06/08 03:23:33;;;;;;;;;;;;;;;;;;5013469;28;1175;-74
2022/06/08 03:25:59;;;;;;;;;;;;;;;;;;5013762;28;1696;-73
2022/06/08 03:28:28;;;;;;;;;;;;;;;;;;5013210;28;885;-74
2022/06/08 03:30:56;;;;;;;;;;;;;;;;;;5012235;28;1412;-73
2022/06/08 03:33:23;;;;;;;;;;;;;;;;;;5012859;28;1472;-74
2022/06/08 03:35:49;;;;;;;;;;;;;;;;;;5013300;28;1751;-73
2022/06/08 03:38:20;;;;;;;;;;;;;;;;;;5013141;28;2231;-74
2022/06/08 03:40:48;;;;;;;;;;;;;;;;;;5013229;28;1351;-73
2022/06/08 03:43:17;;;;;;;;;;;;;;;;;;5013120;28;1940;-74
2022/06/08 03:45:44;;;;;;;;;;;;;;;;;;5013113;28;1133;-74
2022/06/08 03:48:11;;;;;;;;;;;;;;;;;;5030620;28;965;-73
2022/06/08 03:50:40;;;;;;;;;;;;;;;;;;5030707;28;1296;-73
2022/06/08 03:53:07;;;;;;;;;;;;;;;;;;5013201;28;1172;-74
2022/06/08 03:55:35;;;;;;;;;;;;;;;;;;5013060;28;1339;-73
2022/06/08 03:58:01;;;;;;;;;;;;;;;;;;5012969;28;1918;-73
2022/06/08 04:00:31;;;;;;;;;;;;;;;;;;5013056;28;1328;-73
2022/06/08 04:03:04;;;;;;;;;;;;;;;;;;5013305;28;1521;-73
2022/06/08 04:05:31;;;;;;;;;;;;;;;;;;5012791;28;1285;-73
2022/06/08 04:07:59;;;;;;;;;;;;;;;;;;5012733;28;1311;-74
2022/06/08 04:10:26;;;;;;;;;;;;;;;;;;5012911;28;1421;-73
2022/06/08 04:12:57;;;;;;;;;;;;;;;;;;5013015;28;1302;-74
2022/06/08 04:15:44;;;;;;;;;;;;;;;;;;5012828;28;1481;-74
2022/06/08 04:18:35;;;;;;;;;;;;;;;;;;5012857;28;1914;-73
2022/06/08 04:21:04;;;;;;;;;;;;;;;;;;5012922;28;1444;-74
2022/06/08 04:23:37;;;;;;;;;;;;;;;;;;5012919;28;1507;-74
2022/06/08 04:26:04;;;;;;;;;;;;;;;;;;5012526;28;1518;-72
2022/06/08 04:28:32;;;;;;;;;;;;;;;;;;5012748;28;1400;-72
2022/06/08 04:31:05;;;;;;;;;;;;;;;;;;5012550;28;1563;-72
2022/06/08 04:33:35;;;;;;;;;;;;;;;;;;5012503;28;823;-72
2022/06/08 04:36:03;;;;;;;;;;;;;;;;;;5012570;28;1705;-72
2022/06/08 04:38:29;;;;;;;;;;;;;;;;;;5012476;28;1914;-72
2022/06/08 04:40:56;;;;;;;;;;;;;;;;;;5012789;28;1399;-72
2022/06/08 04:43:22;;;;;;;;;;;;;;;;;;5016842;28;1306;-72
2022/06/08 04:45:50;;;;;;;;;;;;;;;;;;5016550;28;1213;-72
2022/06/08 04:48:17;;;;;;;;;;;;;;;;;;5016264;28;1467;-72
2022/06/08 04:50:44;;;;;;;;;;;;;;;;;;5016269;28;1449;-72
2022/06/08 04:53:10;;;;;;;;;;;;;;;;;;5034103;28;826;-72
2022/06/08 04:55:39;;;;;;;;;;;;;;;;;;5016175;28;1200;-72
2022/06/08 04:58:05;;;;;;;;;;;;;;;;;;5033808;28;1906;-72
2022/06/08 05:00:32;;;;;;;;;;;;;;;;;;5015970;28;1415;-72
2022/06/08 05:03:03;;;;;;;;;;;;;;;;;;5016232;28;1337;-71
2022/06/08 05:05:34;;;;;;;;;;;;;;;;;;5016048;28;1309;-72
2022/06/08 05:08:03;;;;;;;;;;;;;;;;;;5015945;28;1233;-71
2022/06/08 05:10:34;;;;;;;;;;;;;;;;;;5015728;28;1338;-73
2022/06/08 05:13:01;;;;;;;;;;;;;;;;;;5016002;28;1460;-72
2022/06/08 05:15:29;;;;;;;;;;;;;;;;;;5015922;28;1562;-72
2022/06/08 05:17:57;;;;;;;;;;;;;;;;;;5015580;28;1914;-72
2022/06/08 05:20:25;;;;;;;;;;;;;;;;;;5015879;28;1371;-72
2022/06/08 05:22:52;;;;;;;;;;;;;;;;;;5015752;28;1216;-72
2022/06/08 05:25:19;;;;;;;;;;;;;;;;;;5015312;28;1456;-72
2022/06/08 05:27:46;;;;;;;;;;;;;;;;;;5015292;28;1319;-72
2022/06/08 05:30:13;;;;;;;;;;;;;;;;;;5015403;28;1386;-72
2022/06/08 05:32:41;;;;;;;;;;;;;;;;;;5015357;28;1229;-72
2022/06/08 05:35:08;;;;;;;;;;;;;;;;;;5015524;28;1153;-72
2022/06/08 05:37:36;;;;;;;;;;;;;;;;;;5015200;28;1106;-72
2022/06/08 05:40:03;;;;;;;;;;;;;;;;;;5015254;28;1926;-72
2022/06/08 05:42:31;;;;;;;;;;;;;;;;;;5015674;28;1346;-72
2022/06/08 05:44:58;;;;;;;;;;;;;;;;;;5015798;28;1671;-72
2022/06/08 05:47:26;;;;;;;;;;;;;;;;;;5015084;28;1201;-72
2022/06/08 05:49:55;;;;;;;;;;;;;;;;;;5015497;28;1344;-72
2022/06/08 05:52:22;;;;;;;;;;;;;;;;;;5032696;28;827;-71
2022/06/08 05:54:49;;;;;;;;;;;;;;;;;;5014729;28;920;-71
2022/06/08 05:57:16;;;;;;;;;;;;;;;;;;5033126;28;791;-72
2022/06/08 05:59:43;;;;;;;;;;;;;;;;;;5015056;28;1919;-72
2022/06/08 06:02:12;;;;;;;;;;;;;;;;;;5015424;28;1235;-72
2022/06/08 06:04:38;;;;;;;;;;;;;;;;;;5032866;28;1087;-72
2022/06/08 06:07:05;;;;;;;;;;;;;;;;;;5014939;28;1259;-72
2022/06/08 06:09:32;;;;;;;;;;;;;;;;;;5014833;28;1390;-72
2022/06/08 06:12:01;;;;;;;;;;;;;;;;;;5052020;23;3558;-75
2022/06/08 06:14:34;;;;;;;;;;;;;;;;;;5047409;28;1552;-74
2022/06/08 06:17:00;;;;;;;;;;;;;;;;;;5054129;28;1319;-74
2022/06/08 06:19:27;;;;;;;;;;;;;;;;;;5054510;28;1914;-75
2022/06/08 06:22:09;;;;;;;;;;;;;;;;;;5054354;28;1421;-75
2022/06/08 06:24:41;;;;;;;;;;;;;;;;;;5072305;28;885;-74
2022/06/08 06:27:27;;;;;;;;;;;;;;;;;;5072377;28;679;-74
2022/06/08 06:30:04;;;;;;;;;;;;;;;;;;5054478;28;1448;-74
2022/06/08 06:33:06;;;;;;;;;;;;;;;;;;5010099;28;1286;-75
2022/06/08 06:35:32;;;;;;;;;;;;;;;;;;5045917;28;1470;-75
2022/06/08 06:38:00;;;;;;;;;;;;;;;;;;5053978;28;1441;-75
2022/06/08 06:40:30;;;;;;;;;;;;;;;;;;5053982;28;1985;-75
2022/06/08 06:42:59;;;;;;;;;;;;;;;;;;5043186;28;1668;-74
2022/06/08 06:45:29;;;;;;;;;;;;;;;;;;5050627;28;1357;-73
2022/06/08 06:48:01;;;;;;;;;;;;;;;;;;5050445;28;1515;-73
2022/06/08 06:50:31;;;;;;;;;;;;;;;;;;5050727;28;1399;-75
2022/06/08 06:52:59;;;;;;;;;;;;;;;;;;5043019;28;2245;-75
2022/06/08 06:55:26;;;;;;;;;;;;;;;;;;5050687;28;1066;-75
2022/06/08 06:57:56;;;;;;;;;;;;;;;;;;5050593;28;1370;-74
2022/06/08 07:00:27;;;;;;;;;;;;;;;;;;5050402;28;1918;-74
2022/06/08 07:02:56;;;;;;;;;;;;;;;;;;5050607;28;1456;-75
2022/06/08 07:05:24;;;;;;;;;;;;;;;;;;5050325;28;1187;-76
2022/06/08 07:07:50;;;;;;;;;;;;;;;;;;5049926;28;1203;-76
2022/06/08 07:10:18;;;;;;;;;;;;;;;;;;5050222;28;1302;-75
2022/06/08 07:12:44;;;;;;;;;;;;;;;;;;5051301;28;778;-74
2022/06/08 07:15:12;;;;;;;;;;;;;;;;;;5050519;28;1326;-75
2022/06/08 07:17:40;;;;;;;;;;;;;;;;;;5049767;28;1179;-75
2022/06/08 07:20:08;;;;;;;;;;;;;;;;;;5050095;28;1984;-74
2022/06/08 07:22:35;;;;;;;;;;;;;;;;;;5049829;28;1542;-74
2022/06/08 07:25:01;;;;;;;;;;;;;;;;;;5051363;28;854;-74
2022/06/08 07:27:27;;;;;;;;;;;;;;;;;;5050900;28;1067;-73
2022/06/08 07:29:53;;;;;;;;;;;;;;;;;;5050761;28;1470;-74
2022/06/08 07:32:20;;;;;;;;;;;;;;;;;;5050931;28;1358;-73
2022/06/08 07:34:47;;;;;;;;;;;;;;;;;;5051080;28;900;-73
2022/06/08 07:37:14;;;;;;;;;;;;;;;;;;5050944;28;941;-74
2022/06/08 07:39:40;;;;;;;;;;;;;;;;;;5050797;28;1926;-74
2022/06/08 07:42:06;;;;;;;;;;;;;;;;;;5050905;28;1407;-74
2022/06/08 07:44:33;;;;;;;;;;;;;;;;;;5050979;28;791;-74
2022/06/08 07:46:59;;;;;;;;;;;;;;;;;;5050865;28;981;-74
2022/06/08 07:49:36;;;;;;;;;;;;;;;;;;5050755;28;1146;-75
2022/06/08 07:52:05;;;;;;;;;;;;;;;;;;5050826;28;1289;-73
2022/06/08 07:54:31;;;;;;;;;;;;;;;;;;5049544;28;1407;-75
2022/06/08 07:56:58;;;;;;;;;;;;;;;;;;5050530;28;783;-74
2022/06/08 07:59:25;;;;;;;;;;;;;;;;;;5050799;28;1969;-75
2022/06/08 08:01:52;;;;;;;;;;;;;;;;;;5031866;28;1726;-75
2022/06/08 08:04:19;;;;;;;;;;;;;;;;;;5050809;28;1411;-75
2022/06/08 08:06:45;;;;;;;;;;;;;;;;;;5050358;28;815;-75
2022/06/08 08:09:17;;;;;;;;;;;;;;;;;;5032668;28;1091;-74
2022/06/08 08:11:44;;;;;;;;;;;;;;;;;;5050377;28;1396;-74
2022/06/08 08:14:10;;;;;;;;;;;;;;;;;;5050541;28;1111;-73
2022/06/08 08:16:37;;;;;;;;;;;;;;;;;;5049653;28;1119;-75
2022/06/08 08:19:03;;;;;;;;;;;;;;;;;;5032614;28;1914;-76
2022/06/08 08:21:30;;;;;;;;;;;;;;;;;;5050239;28;1325;-74
2022/06/08 08:23:56;;;;;;;;;;;;;;;;;;5048969;28;1904;-74
2022/06/08 08:26:23;;;;;;;;;;;;;;;;;;5061294;28;1008;-75
2022/06/08 08:28:50;;;;;;;;;;;;;;;;;;5067244;28;1189;-74
2022/06/08 08:31:16;;;;;;;;;;;;;;;;;;5052242;28;1317;-75
2022/06/08 08:33:42;;;;;;;;;;;;;;;;;;5070305;28;957;-75
2022/06/08 08:36:09;;;;;;;;;;;;;;;;;;5070096;28;1083;-73
2022/06/08 08:38:35;;;;;;;;;;;;;;;;;;5070228;28;905;-75
2022/06/08 08:41:02;;;;;;;;;;;;;;;;;;5070236;28;1913;-75
2022/06/08 08:43:31;;;;;;;;;;;;;;;;;;5069866;28;1130;-76
2022/06/08 08:46:05;;;;;;;;;;;;;;;;;;5052389;28;1279;-75
2022/06/08 08:48:34;;;;;;;;;;;;;;;;;;5051989;28;1016;-75
2022/06/08 08:51:02;;;;;;;;;;;;;;;;;;5070314;28;1371;-73
2022/06/08 08:53:31;;;;;;;;;;;;;;;;;;5071003;28;865;-72
2022/06/08 08:56:03;;;;;;;;;;;;;;;;;;5070023;28;1067;-75
2022/06/08 08:58:31;;;;;;;;;;;;;;;;;;5069926;28;977;-75
2022/06/08 09:00:59;;;;;;;;;;;;;;;;;;5070027;28;1922;-75
2022/06/08 09:03:27;;;;;;;;;;;;;;;;;;5069864;28;1119;-75
2022/06/08 09:05:55;;;;;;;;;;;;;;;;;;5052304;28;1570;-75
2022/06/08 09:08:22;;;;;;;;;;;;;;;;;;5051740;28;1420;-75
2022/06/08 09:10:49;;;;;;;;;;;;;;;;;;5070020;28;1306;-76
2022/06/08 09:13:19;;;;;;;;;;;;;;;;;;5069782;28;1095;-76
2022/06/08 09:15:48;;;;;;;;;;;;;;;;;;5070265;28;956;-76
2022/06/08 09:18:18;;;;;;;;;;;;;;;;;;5051697;28;897;-75
2022/06/08 09:20:44;;;;;;;;;;;;;;;;;;5069961;28;1921;-75
2022/06/08 09:23:20;;;;;;;;;;;;;;;;;;5052240;28;1123;-75
2022/06/08 09:25:46;;;;;;;;;;;;;;;;;;5070202;28;996;-75
2022/06/08 09:28:22;;;;;;;;;;;;;;;;;;5070474;28;794;-75
2022/06/08 09:30:51;;;;;;;;;;;;;;;;;;5073781;28;1404;-75
2022/06/08 09:33:20;;;;;;;;;;;;;;;;;;5063125;28;1475;-76
2022/06/08 09:35:52;;;;;;;;;;;;;;;;;;5035210;28;1477;-77
2022/06/08 09:38:18;;;;;;;;;;;;;;;;;;5052949;28;1123;-75
2022/06/08 09:40:45;;;;;;;;;;;;;;;;;;5035274;28;1977;-75
2022/06/08 09:43:19;;;;;;;;;;;;;;;;;;5053078;28;906;-75
2022/06/08 09:45:48;;;;;;;;;;;;;;;;;;5053196;28;803;-74
2022/06/08 09:51:29;;;;;;;;;;;;;;;;;;5053142;28;1366;-77
2022/06/08 09:54:01;;;;;;;;;;;;;;;;;;5052801;28;938;-74
2022/06/08 09:56:30;;;;;;;;;;;;;;;;;;5051544;28;1092;-76
2022/06/08 09:58:59;;;;;;;;;;;;;;;;;;5052929;28;1064;-75
2022/06/08 10:01:29;;;;;;;;;;;;;;;;;;5050689;28;1914;-75
2022/06/08 10:04:03;;;;;;;;;;;;;;;;;;5052472;28;799;-75
2022/06/08 10:06:31;;;;;;;;;;;;;;;;;;5052386;28;882;-75
2022/06/08 10:09:00;;;;;;;;;;;;;;;;;;5052569;28;1401;-76
2022/06/08 10:11:37;;;;;;;;;;;;;;;;;;5052260;28;1302;-76
2022/06/08 10:14:04;;;;;;;;;;;;;;;;;;5052644;28;885;-76
2022/06/08 10:16:32;;;;;;;;;;;;;;;;;;5052478;28;1000;-75
2022/06/08 10:19:00;;;;;;;;;;;;;;;;;;5052520;28;1067;-76
2022/06/08 10:21:28;;;;;;;;;;;;;;;;;;5052288;28;1977;-76
2022/06/08 10:23:56;;;;;;;;;;;;;;;;;;5034601;28;1126;-76
2022/06/08 10:26:24;;;;;;;;;;;;;;;;;;5051836;28;1072;-76
2022/06/08 10:28:52;;;;;;;;;;;;;;;;;;5052545;28;960;-76
2022/06/08 10:31:21;;;;;;;;;;;;;;;;;;5052013;28;1396;-76
2022/06/08 10:33:48;;;;;;;;;;;;;;;;;;5034368;28;1446;-76
2022/06/08 10:36:15;;;;;;;;;;;;;;;;;;5034401;28;1295;-75
2022/06/08 10:38:43;;;;;;;;;;;;;;;;;;5051736;28;1072;-76
2022/06/08 10:43:58;;;;;;;;;;;;;;;;;;5050917;28;1064;-76
2022/06/08 10:46:29;;;;;;;;;;;;;;;;;;5051465;28;1413;-74
2022/06/08 10:48:55;;;;;;;;;;;;;;;;;;5051844;28;1283;-75
2022/06/08 10:51:37;;;;;;;;;;;;;;;;;;5051690;28;1311;-76
2022/06/08 10:56:52;;;;;;;;;;;;;;;;;;5025693;28;1302;-75
2022/06/08 10:59:19;;;;;;;;;;;;;;;;;;5051590;28;1135;-76
2022/06/08 11:01:49;;;;;;;;;;;;;;;;;;5033437;28;1947;-75
2022/06/08 11:04:30;;;;;;;;;;;;;;;;;;5051462;28;1119;-75
2022/06/08 11:07:03;;;;;;;;;;;;;;;;;;5050438;28;1347;-75
2022/06/08 11:09:47;;;;;;;;;;;;;;;;;;5033483;28;1408;-75
2022/06/08 11:12:18;;;;;;;;;;;;;;;;;;5051030;28;1297;-75
2022/06/08 11:14:51;;;;;;;;;;;;;;;;;;5051445;28;849;-75
2022/06/08 11:17:21;;;;;;;;;;;;;;;;;;5033156;28;1543;-75
2022/06/08 11:19:47;;;;;;;;;;;;;;;;;;5033507;28;1183;-75
2022/06/08 11:22:15;;;;;;;;;;;;;;;;;;5051115;28;1914;-74
2022/06/08 11:24:43;;;;;;;;;;;;;;;;;;5051075;28;1021;-76
2022/06/08 11:27:29;;;;;;;;;;;;;;;;;;5050765;28;1168;-75
2022/06/08 11:29:55;;;;;;;;;;;;;;;;;;5033254;28;911;-76
2022/06/08 11:32:29;;;;;;;;;;;;;;;;;;5050684;28;1302;-75
2022/06/08 11:35:03;;;;;;;;;;;;;;;;;;5051048;28;1072;-75
2022/06/08 11:37:32;;;;;;;;;;;;;;;;;;5050628;28;969;-75
2022/06/08 11:40:00;;;;;;;;;;;;;;;;;;5050928;28;1971;-76
2022/06/08 11:42:29;;;;;;;;;;;;;;;;;;5050241;28;1471;-75
2022/06/08 11:44:56;;;;;;;;;;;;;;;;;;5050880;28;1047;-75
2022/06/08 11:47:24;;;;;;;;;;;;;;;;;;5050531;28;914;-76
2022/06/08 11:49:55;;;;;;;;;;;;;;;;;;5050756;28;902;-76
2022/06/08 11:52:29;;;;;;;;;;;;;;;;;;5032069;28;1673;-76
2022/06/08 11:55:00;;;;;;;;;;;;;;;;;;5050689;28;1140;-76
2022/06/08 11:57:27;;;;;;;;;;;;;;;;;;5032359;28;1124;-76
2022/06/08 11:59:54;;;;;;;;;;;;;;;;;;5032883;28;1202;-76
2022/06/08 12:02:21;;;;;;;;;;;;;;;;;;5050313;28;1973;-76
2022/06/08 12:04:49;;;;;;;;;;;;;;;;;;5050756;28;1024;-76
2022/06/08 12:07:36;;;;;;;;;;;;;;;;;;5032518;28;831;-76
2022/06/08 12:10:03;;;;;;;;;;;;;;;;;;5032592;28;921;-76
2022/06/08 12:12:31;;;;;;;;;;;;;;;;;;5032199;28;1340;-76
2022/06/08 12:14:57;;;;;;;;;;;;;;;;;;5050411;28;921;-76
2022/06/08 12:17:25;;;;;;;;;;;;;;;;;;5050182;28;1131;-76
2022/06/08 12:19:53;;;;;;;;;;;;;;;;;;5050735;28;1118;-75
2022/06/08 12:22:20;;;;;;;;;;;;;;;;;;5068981;22;3666;-74
2022/06/08 12:25:01;;;;;;;;;;;;;;;;;;5053121;28;1190;-74
2022/06/08 12:27:28;;;;;;;;;;;;;;;;;;5029611;28;1475;-75
2022/06/08 12:29:56;;;;;;;;;;;;;;;;;;5030506;28;1004;-73
2022/06/08 12:32:27;;;;;;;;;;;;;;;;;;5036727;28;1270;-74
2022/06/08 12:35:05;;;;;;;;;;;;;;;;;;5066753;28;1666;-74
2022/06/08 12:37:36;;;;;;;;;;;;;;;;;;5068782;28;1211;-74
2022/06/08 12:40:17;;;;;;;;;;;;;;;;;;5070152;28;786;-75
2022/06/08 12:42:46;;;;;;;;;;;;;;;;;;5070094;28;2101;-75
2022/06/08 12:45:24;;;;;;;;;;;;;;;;;;5071054;28;2227;-75
2022/06/08 12:47:51;;;;;;;;;;;;;;;;;;5069864;28;1104;-74
2022/06/08 12:50:18;;;;;;;;;;;;;;;;;;5070169;28;1111;-74
2022/06/08 12:52:45;;;;;;;;;;;;;;;;;;5070295;28;1378;-74
2022/06/08 12:55:12;;;;;;;;;;;;;;;;;;5070080;28;1147;-75
2022/06/08 12:57:42;;;;;;;;;;;;;;;;;;5070173;28;905;-75
2022/06/08 13:00:09;;;;;;;;;;;;;;;;;;5070051;28;956;-75
2022/06/08 13:02:39;;;;;;;;;;;;;;;;;;5071121;28;1906;-74
2022/06/08 13:05:08;;;;;;;;;;;;;;;;;;5073774;28;976;-74
2022/06/08 13:07:35;;;;;;;;;;;;;;;;;;5072551;28;1253;-74
2022/06/08 13:10:01;;;;;;;;;;;;;;;;;;5072311;28;1165;-75
2022/06/08 13:12:31;;;;;;;;;;;;;;;;;;5073610;28;1297;-76
2022/06/08 13:14:57;;;;;;;;;;;;;;;;;;5072242;28;996;-75
2022/06/08 13:17:24;;;;;;;;;;;;;;;;;;5073740;28;1064;-75
2022/06/08 13:19:53;;;;;;;;;;;;;;;;;;5073967;28;958;-76
2022/06/08 13:22:20;;;;;;;;;;;;;;;;;;5073659;28;2032;-76
2022/06/08 13:24:46;;;;;;;;;;;;;;;;;;5073637;28;1411;-75
2022/06/08 13:27:14;;;;;;;;;;;;;;;;;;5073219;28;826;-75
2022/06/08 13:29:40;;;;;;;;;;;;;;;;;;5073527;28;992;-75
2022/06/08 13:32:09;;;;;;;;;;;;;;;;;;5071919;28;1353;-75
2022/06/08 13:34:36;;;;;;;;;;;;;;;;;;5073105;28;1459;-74
2022/06/08 13:37:03;;;;;;;;;;;;;;;;;;5073124;28;1067;-74
2022/06/08 13:39:31;;;;;;;;;;;;;;;;;;5083647;28;881;-74
2022/06/08 13:41:58;;;;;;;;;;;;;;;;;;5082938;28;1879;-73
2022/06/08 13:44:28;;;;;;;;;;;;;;;;;;5073926;28;1180;-75
2022/06/08 13:46:55;;;;;;;;;;;;;;;;;;5071471;28;1168;-74
2022/06/08 13:49:22;;;;;;;;;;;;;;;;;;5073219;28;882;-74
2022/06/08 13:51:48;;;;;;;;;;;;;;;;;;5073001;28;1308;-75
2022/06/08 13:54:25;;;;;;;;;;;;;;;;;;5071656;28;1405;-75
2022/06/08 13:56:52;;;;;;;;;;;;;;;;;;5072774;28;806;-74
2022/06/08 13:59:18;;;;;;;;;;;;;;;;;;5072962;28;778;-75
2022/06/08 14:01:46;;;;;;;;;;;;;;;;;;5072698;28;1914;-74
2022/06/08 14:04:14;;;;;;;;;;;;;;;;;;5071661;28;854;-74
2022/06/08 14:14:53;;;;;;;;;;;;;;;;;;5071524;28;1024;-74
2022/06/08 14:17:20;;;;;;;;;;;;;;;;;;5072465;28;869;-74
2022/06/08 14:19:47;;;;;;;;;;;;;;;;;;5072546;28;1083;-75
2022/06/08 14:22:15;;;;;;;;;;;;;;;;;;5070404;28;1910;-74
2022/06/08 14:24:43;;;;;;;;;;;;;;;;;;5064537;28;2052;-73
2022/06/08 14:27:10;;;;;;;;;;;;;;;;;;5071604;28;1173;-74
2022/06/08 14:29:37;;;;;;;;;;;;;;;;;;5057579;28;1229;-74
2022/06/08 14:32:04;;;;;;;;;;;;;;;;;;5051997;28;1287;-74
2022/06/08 14:34:32;;;;;;;;;;;;;;;;;;5051188;28;1729;-74
2022/06/08 14:36:59;;;;;;;;;;;;;;;;;;5051481;28;1657;-74
2022/06/08 14:39:27;;;;;;;;;;;;;;;;;;5052017;28;1063;-74
2022/06/08 14:41:54;;;;;;;;;;;;;;;;;;5050571;28;1986;-74
2022/06/08 14:44:21;;;;;;;;;;;;;;;;;;5051898;28;1068;-74
2022/06/08 14:46:48;;;;;;;;;;;;;;;;;;5051576;28;1076;-74
2022/06/08 14:49:15;;;;;;;;;;;;;;;;;;5051956;28;678;-75
2022/06/08 14:51:41;;;;;;;;;;;;;;;;;;5051818;28;1362;-75
2022/06/08 14:54:10;;;;;;;;;;;;;;;;;;5051752;28;1088;-75
2022/06/08 14:56:37;;;;;;;;;;;;;;;;;;5051720;28;1015;-74
2022/06/08 14:59:11;;;;;;;;;;;;;;;;;;5050361;28;1134;-75
2022/06/08 15:01:37;;;;;;;;;;;;;;;;;;5051412;28;1922;-75
2022/06/08 15:04:03;;;;;;;;;;;;;;;;;;5051544;28;1012;-75
2022/06/08 15:06:31;;;;;;;;;;;;;;;;;;5050262;28;1154;-75
2022/06/08 15:08:57;;;;;;;;;;;;;;;;;;5050490;28;1215;-75
2022/06/08 15:14:13;;;;;;;;;;;;;;;;;;5051431;28;1048;-75
2022/06/08 15:16:39;;;;;;;;;;;;;;;;;;5051248;28;1131;-75
2022/06/08 15:19:05;;;;;;;;;;;;;;;;;;5051565;28;875;-75
2022/06/08 15:21:32;;;;;;;;;;;;;;;;;;5051422;28;874;-75
2022/06/08 15:23:58;;;;;;;;;;;;;;;;;;5051117;28;1823;-75
2022/06/08 15:26:24;;;;;;;;;;;;;;;;;;5050792;28;1031;-74
2022/06/08 15:28:50;;;;;;;;;;;;;;;;;;5051363;28;1067;-75
2022/06/08 15:31:18;;;;;;;;;;;;;;;;;;5050958;28;1903;-75
2022/06/08 15:33:44;;;;;;;;;;;;;;;;;;5050868;28;1349;-74
2022/06/08 15:36:14;;;;;;;;;;;;;;;;;;5051329;28;1053;-75
2022/06/08 15:38:44;;;;;;;;;;;;;;;;;;5066420;28;1388;-74
2022/06/08 15:41:10;;;;;;;;;;;;;;;;;;5051251;28;1048;-75
2022/06/08 15:43:36;;;;;;;;;;;;;;;;;;5060450;28;1496;-75
2022/06/08 15:46:03;;;;;;;;;;;;;;;;;;5070967;28;1067;-74
2022/06/08 15:48:30;;;;;;;;;;;;;;;;;;5070672;28;774;-75
2022/06/08 15:50:57;;;;;;;;;;;;;;;;;;5070996;28;1180;-74
2022/06/08 15:53:24;;;;;;;;;;;;;;;;;;5070729;28;1910;-74
2022/06/08 15:55:50;;;;;;;;;;;;;;;;;;5070964;28;1057;-74
2022/06/08 15:58:18;;;;;;;;;;;;;;;;;;5070427;28;1071;-74
2022/06/08 16:00:44;;;;;;;;;;;;;;;;;;5070777;28;1256;-74
2022/06/08 16:03:10;;;;;;;;;;;;;;;;;;5070613;28;1294;-74
2022/06/08 16:05:39;;;;;;;;;;;;;;;;;;5070795;28;1130;-74
2022/06/08 16:08:05;;;;;;;;;;;;;;;;;;5069334;28;1123;-74
2022/06/08 16:10:32;;;;;;;;;;;;;;;;;;5070823;28;881;-74
2022/06/08 16:12:59;;;;;;;;;;;;;;;;;;5069361;28;1982;-73
2022/06/08 16:15:25;;;;;;;;;;;;;;;;;;5070445;28;1070;-74
2022/06/08 16:17:51;;;;;;;;;;;;;;;;;;5070481;28;843;-74
2022/06/08 16:20:20;;;;;;;;;;;;;;;;;;5070447;28;1119;-74
2022/06/08 16:22:48;;;;;;;;;;;;;;;;;;5070738;28;1313;-74
2022/06/08 16:25:14;;;;;;;;;;;;;;;;;;5069023;28;1036;-74
2022/06/08 16:27:40;;;;;;;;;;;;;;;;;;5069211;28;1123;-74
2022/06/08 16:30:08;;;;;;;;;;;;;;;;;;5070510;28;1079;-74
2022/06/08 16:32:34;;;;;;;;;;;;;;;;;;5085937;28;1914;-74
2022/06/08 16:35:00;;;;;;;;;;;;;;;;;;5070503;28;1052;-74
2022/06/08 16:37:26;;;;;;;;;;;;;;;;;;5071399;28;882;-75
2022/06/08 16:39:54;;;;;;;;;;;;;;;;;;5074745;28;1067;-74
2022/06/08 16:42:20;;;;;;;;;;;;;;;;;;5074505;28;1371;-74
2022/06/08 16:44:46;;;;;;;;;;;;;;;;;;5075539;28;1519;-74
2022/06/08 16:47:12;;;;;;;;;;;;;;;;;;5080996;28;1099;-74
2022/06/08 16:49:39;;;;;;;;;;;;;;;;;;5079936;28;1096;-74
2022/06/08 16:52:05;;;;;;;;;;;;;;;;;;5074218;28;1973;-74
2022/06/08 16:54:31;;;;;;;;;;;;;;;;;;5072895;28;1195;-74
2022/06/08 16:59:43;;;;;;;;;;;;;;;;;;5074100;28;1028;-74
2022/06/08 17:02:11;;;;;;;;;;;;;;;;;;5073756;28;1375;-73
2022/06/08 17:04:37;;;;;;;;;;;;;;;;;;5074068;28;894;-74
2022/06/08 17:07:04;;;;;;;;;;;;;;;;;;5073824;28;940;-74
2022/06/08 17:09:30;;;;;;;;;;;;;;;;;;5073934;28;1186;-74
2022/06/08 17:11:56;;;;;;;;;;;;;;;;;;5073803;28;1910;-74
2022/06/08 17:14:24;;;;;;;;;;;;;;;;;;5073954;28;945;-74
2022/06/08 17:16:51;;;;;;;;;;;;;;;;;;5073671;28;1076;-74
2022/06/08 17:19:18;;;;;;;;;;;;;;;;;;5073651;28;1083;-74
2022/06/08 17:21:44;;;;;;;;;;;;;;;;;;5073851;28;1365;-74
2022/06/08 17:24:10;;;;;;;;;;;;;;;;;;5073489;28;1036;-74
2022/06/08 17:26:37;;;;;;;;;;;;;;;;;;5073110;28;1127;-74
2022/06/08 17:29:03;;;;;;;;;;;;;;;;;;5073538;28;1060;-74
2022/06/08 17:31:31;;;;;;;;;;;;;;;;;;5071924;28;1556;-74
2022/06/08 17:33:57;;;;;;;;;;;;;;;;;;5072010;28;1918;-74
2022/06/08 17:36:24;;;;;;;;;;;;;;;;;;5073295;28;1017;-73
2022/06/08 17:38:50;;;;;;;;;;;;;;;;;;5073409;28;1067;-74
2022/06/08 17:41:17;;;;;;;;;;;;;;;;;;5073182;28;952;-74